sensor_id;sensor_type;location;lat;lon;timestamp;P1;durP1;ratioP1;P2;durP2;ratioP2
15228;SDS011;7717;47.792;12.076;2022-07-05T00:01:33;0.00;;;0.00;;
15228;SDS011;7717;47.792;12.076;2022-07-05T00:03:58;0.00;;;0.00;;
15228;SDS011;7717;47.792;12.076;2022-07-05T00:06:23;0.00;;;0.00;;
15228;SDS011;7717;47.792;12.076;2022-07-05T00:08:49;0.00;;;0.00;;
15228;SDS011;7717;47.792;12.076;2022-07-05T00:11:14;0.00;;;0.00;;
15228;SDS011;7717;47.792;12.076;2022-07-05T00:13:39;0.00;;;0.00;;
15228;SDS011;7717;47.792;12.076;2022-07-05T00:16:05;0.00;;;0.00;;
15228;SDS011;7717;47.792;12.076;2022-07-05T00:18:30;0.00;;;0.00;;
15228;SDS011;7717;47.792;12.076;2022-07-05T00:20:55;0.00;;;0.00;;
15228;SDS011;7717;47.792;12.076;2022-07-05T00:23:20;0.00;;;0.00;;
15228;SDS011;7717;47.792;12.076;2022-07-05T00:25:45;0.00;;;0.00;;
15228;SDS011;7717;47.792;12.076;2022-07-05T00:28:11;0.00;;;0.00;;
15228;SDS011;7717;47.792;12.076;2022-07-05T00:30:38;0.00;;;0.00;;
15228;SDS011;7717;47.792;12.076;2022-07-05T00:33:03;0.00;;;0.00;;
15228;SDS011;7717;47.792;12.076;2022-07-05T00:35:31;0.00;;;0.00;;
15228;SDS011;7717;47.792;12.076;2022-07-05T00:37:56;0.00;;;0.00;;
15228;SDS011;7717;47.792;12.076;2022-07-05T00:40:22;0.00;;;0.00;;
15228;SDS011;7717;47.792;12.076;2022-07-05T00:42:47;0.00;;;0.00;;
15228;SDS011;7717;47.792;12.076;2022-07-05T00:45:13;0.00;;;0.00;;
15228;SDS011;7717;47.792;12.076;2022-07-05T00:47:38;0.00;;;0.00;;
15228;SDS011;7717;47.792;12.076;2022-07-05T00:50:03;0.00;;;0.00;;
15228;SDS011;7717;47.792;12.076;2022-07-05T00:52:29;0.00;;;0.00;;
15228;SDS011;7717;47.792;12.076;2022-07-05T00:54:54;0.00;;;0.00;;
15228;SDS011;7717;47.792;12.076;2022-07-05T00:57:20;0.00;;;0.00;;
15228;SDS011;7717;47.792;12.076;2022-07-05T00:59:46;0.00;;;0.00;;
15228;SDS011;7717;47.792;12.076;2022-07-05T01:02:11;0.00;;;0.00;;
15228;SDS011;7717;47.792;12.076;2022-07-05T01:04:36;0.00;;;0.00;;
15228;SDS011;7717;47.792;12.076;2022-07-05T01:07:01;0.00;;;0.00;;
15228;SDS011;7717;47.792;12.076;2022-07-05T01:09:28;0.00;;;0.00;;
15228;SDS011;7717;47.792;12.076;2022-07-05T01:11:54;0.00;;;0.00;;
15228;SDS011;7717;47.792;12.076;2022-07-05T01:14:20;0.00;;;0.00;;
15228;SDS011;7717;47.792;12.076;2022-07-05T01:16:46;0.00;;;0.00;;
15228;SDS011;7717;47.792;12.076;2022-07-05T01:19:12;0.00;;;0.00;;
15228;SDS011;7717;47.792;12.076;2022-07-05T01:21:41;0.00;;;0.00;;
15228;SDS011;7717;47.792;12.076;2022-07-05T01:24:08;0.00;;;0.00;;
15228;SDS011;7717;47.792;12.076;2022-07-05T01:26:33;0.00;;;0.00;;
15228;SDS011;7717;47.792;12.076;2022-07-05T01:28:58;0.00;;;0.00;;
15228;SDS011;7717;47.792;12.076;2022-07-05T01:31:24;0.00;;;0.00;;
15228;SDS011;7717;47.792;12.076;2022-07-05T01:33:49;0.00;;;0.00;;
15228;SDS011;7717;47.792;12.076;2022-07-05T01:36:14;0.00;;;0.00;;
15228;SDS011;7717;47.792;12.076;2022-07-05T01:38:40;0.00;;;0.00;;
15228;SDS011;7717;47.792;12.076;2022-07-05T01:41:05;0.00;;;0.00;;
15228;SDS011;7717;47.792;12.076;2022-07-05T01:43:33;0.00;;;0.00;;
15228;SDS011;7717;47.792;12.076;2022-07-05T01:45:59;0.00;;;0.00;;
15228;SDS011;7717;47.792;12.076;2022-07-05T01:48:26;0.00;;;0.00;;
15228;SDS011;7717;47.792;12.076;2022-07-05T01:50:53;0.00;;;0.00;;
15228;SDS011;7717;47.792;12.076;2022-07-05T01:53:23;0.00;;;0.00;;
15228;SDS011;7717;47.792;12.076;2022-07-05T01:55:49;0.00;;;0.00;;
15228;SDS011;7717;47.792;12.076;2022-07-05T01:58:14;0.00;;;0.00;;
15228;SDS011;7717;47.792;12.076;2022-07-05T02:00:44;0.00;;;0.00;;
15228;SDS011;7717;47.792;12.076;2022-07-05T02:03:09;0.00;;;0.00;;
15228;SDS011;7717;47.792;12.076;2022-07-05T02:05:35;0.00;;;0.00;;
15228;SDS011;7717;47.792;12.076;2022-07-05T02:08:00;0.00;;;0.00;;
15228;SDS011;7717;47.792;12.076;2022-07-05T02:10:26;0.00;;;0.00;;
15228;SDS011;7717;47.792;12.076;2022-07-05T02:12:51;0.00;;;0.00;;
15228;SDS011;7717;47.792;12.076;2022-07-05T02:15:16;0.00;;;0.00;;
15228;SDS011;7717;47.792;12.076;2022-07-05T02:17:41;0.00;;;0.00;;
15228;SDS011;7717;47.792;12.076;2022-07-05T02:20:07;0.00;;;0.00;;
15228;SDS011;7717;47.792;12.076;2022-07-05T02:22:32;0.00;;;0.00;;
15228;SDS011;7717;47.792;12.076;2022-07-05T02:24:58;0.00;;;0.00;;
15228;SDS011;7717;47.792;12.076;2022-07-05T02:27:24;0.00;;;0.00;;
15228;SDS011;7717;47.792;12.076;2022-07-05T02:29:49;0.00;;;0.00;;
15228;SDS011;7717;47.792;12.076;2022-07-05T02:32:14;0.00;;;0.00;;
15228;SDS011;7717;47.792;12.076;2022-07-05T02:34:39;0.00;;;0.00;;
15228;SDS011;7717;47.792;12.076;2022-07-05T02:37:05;0.00;;;0.00;;
15228;SDS011;7717;47.792;12.076;2022-07-05T02:39:31;0.00;;;0.00;;
15228;SDS011;7717;47.792;12.076;2022-07-05T02:41:56;0.00;;;0.00;;
15228;SDS011;7717;47.792;12.076;2022-07-05T02:44:21;0.00;;;0.00;;
15228;SDS011;7717;47.792;12.076;2022-07-05T02:46:46;0.00;;;0.00;;
15228;SDS011;7717;47.792;12.076;2022-07-05T02:49:12;0.00;;;0.00;;
15228;SDS011;7717;47.792;12.076;2022-07-05T02:51:37;0.00;;;0.00;;
15228;SDS011;7717;47.792;12.076;2022-07-05T02:54:02;0.00;;;0.00;;
15228;SDS011;7717;47.792;12.076;2022-07-05T02:56:27;0.00;;;0.00;;
15228;SDS011;7717;47.792;12.076;2022-07-05T02:58:53;0.00;;;0.00;;
15228;SDS011;7717;47.792;12.076;2022-07-05T03:01:18;0.00;;;0.00;;
15228;SDS011;7717;47.792;12.076;2022-07-05T03:03:43;0.00;;;0.00;;
15228;SDS011;7717;47.792;12.076;2022-07-05T03:06:08;0.00;;;0.00;;
15228;SDS011;7717;47.792;12.076;2022-07-05T03:08:33;0.00;;;0.00;;
15228;SDS011;7717;47.792;12.076;2022-07-05T03:10:59;0.00;;;0.00;;
15228;SDS011;7717;47.792;12.076;2022-07-05T03:13:24;0.00;;;0.00;;
15228;SDS011;7717;47.792;12.076;2022-07-05T03:15:49;0.00;;;0.00;;
15228;SDS011;7717;47.792;12.076;2022-07-05T03:18:14;0.00;;;0.00;;
15228;SDS011;7717;47.792;12.076;2022-07-05T03:20:40;0.00;;;0.00;;
15228;SDS011;7717;47.792;12.076;2022-07-05T03:23:05;0.00;;;0.00;;
15228;SDS011;7717;47.792;12.076;2022-07-05T03:25:30;0.00;;;0.00;;
15228;SDS011;7717;47.792;12.076;2022-07-05T03:27:56;0.00;;;0.00;;
15228;SDS011;7717;47.792;12.076;2022-07-05T03:30:21;0.00;;;0.00;;
15228;SDS011;7717;47.792;12.076;2022-07-05T03:32:48;0.00;;;0.00;;
15228;SDS011;7717;47.792;12.076;2022-07-05T03:35:13;0.00;;;0.00;;
15228;SDS011;7717;47.792;12.076;2022-07-05T03:37:38;0.00;;;0.00;;
15228;SDS011;7717;47.792;12.076;2022-07-05T03:40:03;0.00;;;0.00;;
15228;SDS011;7717;47.792;12.076;2022-07-05T03:42:29;0.00;;;0.00;;
15228;SDS011;7717;47.792;12.076;2022-07-05T03:44:54;0.00;;;0.00;;
15228;SDS011;7717;47.792;12.076;2022-07-05T03:47:19;0.00;;;0.00;;
15228;SDS011;7717;47.792;12.076;2022-07-05T03:49:45;0.00;;;0.00;;
15228;SDS011;7717;47.792;12.076;2022-07-05T03:52:10;0.00;;;0.00;;
15228;SDS011;7717;47.792;12.076;2022-07-05T03:54:36;0.00;;;0.00;;
15228;SDS011;7717;47.792;12.076;2022-07-05T03:57:01;0.00;;;0.00;;
15228;SDS011;7717;47.792;12.076;2022-07-05T03:59:26;0.00;;;0.00;;
15228;SDS011;7717;47.792;12.076;2022-07-05T04:01:51;0.00;;;0.00;;
15228;SDS011;7717;47.792;12.076;2022-07-05T04:04:16;0.00;;;0.00;;
15228;SDS011;7717;47.792;12.076;2022-07-05T04:06:42;0.00;;;0.00;;
15228;SDS011;7717;47.792;12.076;2022-07-05T04:09:07;0.00;;;0.00;;
15228;SDS011;7717;47.792;12.076;2022-07-05T04:11:32;0.00;;;0.00;;
15228;SDS011;7717;47.792;12.076;2022-07-05T04:13:57;0.00;;;0.00;;
15228;SDS011;7717;47.792;12.076;2022-07-05T04:16:23;0.00;;;0.00;;
15228;SDS011;7717;47.792;12.076;2022-07-05T04:18:48;0.00;;;0.00;;
15228;SDS011;7717;47.792;12.076;2022-07-05T04:21:13;0.00;;;0.00;;
15228;SDS011;7717;47.792;12.076;2022-07-05T04:23:39;0.00;;;0.00;;
15228;SDS011;7717;47.792;12.076;2022-07-05T04:26:04;0.00;;;0.00;;
15228;SDS011;7717;47.792;12.076;2022-07-05T04:28:29;0.00;;;0.00;;
15228;SDS011;7717;47.792;12.076;2022-07-05T04:30:55;0.00;;;0.00;;
15228;SDS011;7717;47.792;12.076;2022-07-05T04:33:20;0.00;;;0.00;;
15228;SDS011;7717;47.792;12.076;2022-07-05T04:35:45;0.00;;;0.00;;
15228;SDS011;7717;47.792;12.076;2022-07-05T04:38:11;0.00;;;0.00;;
15228;SDS011;7717;47.792;12.076;2022-07-05T04:40:36;0.00;;;0.00;;
15228;SDS011;7717;47.792;12.076;2022-07-05T04:43:01;0.00;;;0.00;;
15228;SDS011;7717;47.792;12.076;2022-07-05T04:45:27;0.00;;;0.00;;
15228;SDS011;7717;47.792;12.076;2022-07-05T04:47:52;0.00;;;0.00;;
15228;SDS011;7717;47.792;12.076;2022-07-05T04:50:17;0.00;;;0.00;;
15228;SDS011;7717;47.792;12.076;2022-07-05T04:52:45;0.00;;;0.00;;
15228;SDS011;7717;47.792;12.076;2022-07-05T04:55:10;0.00;;;0.00;;
15228;SDS011;7717;47.792;12.076;2022-07-05T04:57:39;0.00;;;0.00;;
15228;SDS011;7717;47.792;12.076;2022-07-05T05:00:05;0.00;;;0.00;;
15228;SDS011;7717;47.792;12.076;2022-07-05T05:02:30;0.00;;;0.00;;
15228;SDS011;7717;47.792;12.076;2022-07-05T05:04:55;0.00;;;0.00;;
15228;SDS011;7717;47.792;12.076;2022-07-05T05:07:21;0.00;;;0.00;;
15228;SDS011;7717;47.792;12.076;2022-07-05T05:09:46;0.00;;;0.00;;
15228;SDS011;7717;47.792;12.076;2022-07-05T05:12:11;0.00;;;0.00;;
15228;SDS011;7717;47.792;12.076;2022-07-05T05:14:36;0.00;;;0.00;;
15228;SDS011;7717;47.792;12.076;2022-07-05T05:17:01;0.00;;;0.00;;
15228;SDS011;7717;47.792;12.076;2022-07-05T05:19:27;0.00;;;0.00;;
15228;SDS011;7717;47.792;12.076;2022-07-05T05:21:52;0.00;;;0.00;;
15228;SDS011;7717;47.792;12.076;2022-07-05T05:24:17;0.00;;;0.00;;
15228;SDS011;7717;47.792;12.076;2022-07-05T05:26:43;0.00;;;0.00;;
15228;SDS011;7717;47.792;12.076;2022-07-05T05:29:08;0.00;;;0.00;;
15228;SDS011;7717;47.792;12.076;2022-07-05T05:31:33;0.00;;;0.00;;
15228;SDS011;7717;47.792;12.076;2022-07-05T05:33:58;0.00;;;0.00;;
15228;SDS011;7717;47.792;12.076;2022-07-05T05:36:24;0.00;;;0.00;;
15228;SDS011;7717;47.792;12.076;2022-07-05T05:38:49;0.00;;;0.00;;
15228;SDS011;7717;47.792;12.076;2022-07-05T05:41:14;0.00;;;0.00;;
15228;SDS011;7717;47.792;12.076;2022-07-05T05:43:39;0.00;;;0.00;;
15228;SDS011;7717;47.792;12.076;2022-07-05T05:46:04;0.00;;;0.00;;
15228;SDS011;7717;47.792;12.076;2022-07-05T05:48:30;0.00;;;0.00;;
15228;SDS011;7717;47.792;12.076;2022-07-05T05:50:55;0.00;;;0.00;;
15228;SDS011;7717;47.792;12.076;2022-07-05T05:53:24;0.00;;;0.00;;
15228;SDS011;7717;47.792;12.076;2022-07-05T05:55:49;0.00;;;0.00;;
15228;SDS011;7717;47.792;12.076;2022-07-05T05:58:19;0.00;;;0.00;;
15228;SDS011;7717;47.792;12.076;2022-07-05T06:00:45;0.00;;;0.00;;
15228;SDS011;7717;47.792;12.076;2022-07-05T06:03:13;0.00;;;0.00;;
15228;SDS011;7717;47.792;12.076;2022-07-05T06:05:39;0.00;;;0.00;;
15228;SDS011;7717;47.792;12.076;2022-07-05T06:08:04;0.00;;;0.00;;
15228;SDS011;7717;47.792;12.076;2022-07-05T06:10:30;0.00;;;0.00;;
15228;SDS011;7717;47.792;12.076;2022-07-05T06:12:57;0.00;;;0.00;;
15228;SDS011;7717;47.792;12.076;2022-07-05T06:15:23;0.00;;;0.00;;
15228;SDS011;7717;47.792;12.076;2022-07-05T06:17:49;0.00;;;0.00;;
15228;SDS011;7717;47.792;12.076;2022-07-05T06:20:15;0.00;;;0.00;;
15228;SDS011;7717;47.792;12.076;2022-07-05T06:22:41;0.00;;;0.00;;
15228;SDS011;7717;47.792;12.076;2022-07-05T06:25:06;0.20;;;0.20;;
15228;SDS011;7717;47.792;12.076;2022-07-05T06:27:31;0.00;;;0.00;;
15228;SDS011;7717;47.792;12.076;2022-07-05T06:29:57;0.00;;;0.00;;
15228;SDS011;7717;47.792;12.076;2022-07-05T06:32:23;0.00;;;0.00;;
15228;SDS011;7717;47.792;12.076;2022-07-05T06:34:49;0.00;;;0.00;;
15228;SDS011;7717;47.792;12.076;2022-07-05T06:37:14;0.00;;;0.00;;
15228;SDS011;7717;47.792;12.076;2022-07-05T06:39:39;0.10;;;0.10;;
15228;SDS011;7717;47.792;12.076;2022-07-05T06:42:05;0.00;;;0.00;;
15228;SDS011;7717;47.792;12.076;2022-07-05T06:44:30;0.00;;;0.00;;
15228;SDS011;7717;47.792;12.076;2022-07-05T06:46:55;0.00;;;0.00;;
15228;SDS011;7717;47.792;12.076;2022-07-05T06:49:20;0.00;;;0.00;;
15228;SDS011;7717;47.792;12.076;2022-07-05T06:51:46;0.00;;;0.00;;
15228;SDS011;7717;47.792;12.076;2022-07-05T06:54:11;0.00;;;0.00;;
15228;SDS011;7717;47.792;12.076;2022-07-05T06:56:36;0.00;;;0.00;;
15228;SDS011;7717;47.792;12.076;2022-07-05T06:59:01;0.00;;;0.00;;
15228;SDS011;7717;47.792;12.076;2022-07-05T07:01:27;0.00;;;0.00;;
15228;SDS011;7717;47.792;12.076;2022-07-05T07:03:53;0.00;;;0.00;;
15228;SDS011;7717;47.792;12.076;2022-07-05T07:06:18;0.00;;;0.00;;
15228;SDS011;7717;47.792;12.076;2022-07-05T07:08:43;0.00;;;0.00;;
15228;SDS011;7717;47.792;12.076;2022-07-05T07:11:27;0.00;;;0.00;;
15228;SDS011;7717;47.792;12.076;2022-07-05T07:13:52;0.00;;;0.00;;
15228;SDS011;7717;47.792;12.076;2022-07-05T07:16:17;0.00;;;0.00;;
15228;SDS011;7717;47.792;12.076;2022-07-05T07:18:43;0.00;;;0.00;;
15228;SDS011;7717;47.792;12.076;2022-07-05T07:21:08;0.00;;;0.00;;
15228;SDS011;7717;47.792;12.076;2022-07-05T07:23:33;0.00;;;0.00;;
15228;SDS011;7717;47.792;12.076;2022-07-05T07:25:58;0.00;;;0.00;;
15228;SDS011;7717;47.792;12.076;2022-07-05T07:28:24;0.10;;;0.10;;
15228;SDS011;7717;47.792;12.076;2022-07-05T07:30:49;0.00;;;0.00;;
15228;SDS011;7717;47.792;12.076;2022-07-05T07:33:15;0.00;;;0.00;;
15228;SDS011;7717;47.792;12.076;2022-07-05T07:35:40;0.00;;;0.00;;
15228;SDS011;7717;47.792;12.076;2022-07-05T07:38:05;0.00;;;0.00;;
15228;SDS011;7717;47.792;12.076;2022-07-05T07:40:30;0.00;;;0.00;;
15228;SDS011;7717;47.792;12.076;2022-07-05T07:42:55;0.00;;;0.00;;
15228;SDS011;7717;47.792;12.076;2022-07-05T07:45:21;0.00;;;0.00;;
15228;SDS011;7717;47.792;12.076;2022-07-05T07:47:46;0.00;;;0.00;;
15228;SDS011;7717;47.792;12.076;2022-07-05T07:50:11;0.00;;;0.00;;
15228;SDS011;7717;47.792;12.076;2022-07-05T07:52:36;0.00;;;0.00;;
15228;SDS011;7717;47.792;12.076;2022-07-05T07:55:05;0.00;;;0.00;;
15228;SDS011;7717;47.792;12.076;2022-07-05T07:57:31;0.00;;;0.00;;
15228;SDS011;7717;47.792;12.076;2022-07-05T07:59:56;0.30;;;0.17;;
15228;SDS011;7717;47.792;12.076;2022-07-05T08:02:21;0.00;;;0.00;;
15228;SDS011;7717;47.792;12.076;2022-07-05T08:04:48;0.00;;;0.00;;
15228;SDS011;7717;47.792;12.076;2022-07-05T08:07:14;0.00;;;0.00;;
15228;SDS011;7717;47.792;12.076;2022-07-05T08:09:39;0.00;;;0.00;;
15228;SDS011;7717;47.792;12.076;2022-07-05T08:12:04;0.00;;;0.00;;
15228;SDS011;7717;47.792;12.076;2022-07-05T08:14:31;0.00;;;0.00;;
15228;SDS011;7717;47.792;12.076;2022-07-05T08:16:56;0.00;;;0.00;;
15228;SDS011;7717;47.792;12.076;2022-07-05T08:19:21;0.17;;;0.10;;
15228;SDS011;7717;47.792;12.076;2022-07-05T08:22:05;0.00;;;0.00;;
15228;SDS011;7717;47.792;12.076;2022-07-05T08:24:32;0.00;;;0.00;;
15228;SDS011;7717;47.792;12.076;2022-07-05T08:26:57;0.00;;;0.00;;
15228;SDS011;7717;47.792;12.076;2022-07-05T08:29:23;0.00;;;0.00;;
15228;SDS011;7717;47.792;12.076;2022-07-05T08:31:49;0.00;;;0.00;;
15228;SDS011;7717;47.792;12.076;2022-07-05T08:34:15;0.00;;;0.00;;
15228;SDS011;7717;47.792;12.076;2022-07-05T08:36:43;0.00;;;0.00;;
15228;SDS011;7717;47.792;12.076;2022-07-05T08:39:08;0.00;;;0.00;;
15228;SDS011;7717;47.792;12.076;2022-07-05T08:41:35;0.00;;;0.00;;
15228;SDS011;7717;47.792;12.076;2022-07-05T08:44:00;0.38;;;0.38;;
15228;SDS011;7717;47.792;12.076;2022-07-05T08:46:27;0.00;;;0.00;;
15228;SDS011;7717;47.792;12.076;2022-07-05T08:48:54;0.00;;;0.00;;
15228;SDS011;7717;47.792;12.076;2022-07-05T08:51:21;0.00;;;0.00;;
15228;SDS011;7717;47.792;12.076;2022-07-05T08:53:46;0.00;;;0.00;;
15228;SDS011;7717;47.792;12.076;2022-07-05T08:56:12;0.00;;;0.00;;
15228;SDS011;7717;47.792;12.076;2022-07-05T08:58:38;0.00;;;0.00;;
15228;SDS011;7717;47.792;12.076;2022-07-05T09:01:03;0.00;;;0.00;;
15228;SDS011;7717;47.792;12.076;2022-07-05T09:03:32;0.00;;;0.00;;
15228;SDS011;7717;47.792;12.076;2022-07-05T09:06:00;0.00;;;0.00;;
15228;SDS011;7717;47.792;12.076;2022-07-05T09:08:25;0.00;;;0.00;;
15228;SDS011;7717;47.792;12.076;2022-07-05T09:10:51;0.00;;;0.00;;
15228;SDS011;7717;47.792;12.076;2022-07-05T09:13:16;0.00;;;0.00;;
15228;SDS011;7717;47.792;12.076;2022-07-05T09:15:42;0.00;;;0.00;;
15228;SDS011;7717;47.792;12.076;2022-07-05T09:18:07;0.00;;;0.00;;
15228;SDS011;7717;47.792;12.076;2022-07-05T09:20:34;0.00;;;0.00;;
15228;SDS011;7717;47.792;12.076;2022-07-05T09:22:59;0.00;;;0.00;;
15228;SDS011;7717;47.792;12.076;2022-07-05T09:27:56;0.00;;;0.00;;
15228;SDS011;7717;47.792;12.076;2022-07-05T09:30:26;0.00;;;0.00;;
15228;SDS011;7717;47.792;12.076;2022-07-05T09:33:05;0.00;;;0.00;;
15228;SDS011;7717;47.792;12.076;2022-07-05T09:35:31;0.00;;;0.00;;
15228;SDS011;7717;47.792;12.076;2022-07-05T09:37:56;0.00;;;0.00;;
15228;SDS011;7717;47.792;12.076;2022-07-05T09:40:22;0.00;;;0.00;;
15228;SDS011;7717;47.792;12.076;2022-07-05T09:42:47;0.00;;;0.00;;
15228;SDS011;7717;47.792;12.076;2022-07-05T09:45:12;0.00;;;0.00;;
15228;SDS011;7717;47.792;12.076;2022-07-05T09:47:46;0.00;;;0.00;;
15228;SDS011;7717;47.792;12.076;2022-07-05T09:50:11;0.00;;;0.00;;
15228;SDS011;7717;47.792;12.076;2022-07-05T09:52:39;0.00;;;0.00;;
15228;SDS011;7717;47.792;12.076;2022-07-05T09:57:30;0.00;;;0.00;;
15228;SDS011;7717;47.792;12.076;2022-07-05T09:59:59;0.10;;;0.10;;
15228;SDS011;7717;47.792;12.076;2022-07-05T10:02:34;0.00;;;0.00;;
15228;SDS011;7717;47.792;12.076;2022-07-05T10:05:13;0.00;;;0.00;;
15228;SDS011;7717;47.792;12.076;2022-07-05T10:07:42;0.00;;;0.00;;
15228;SDS011;7717;47.792;12.076;2022-07-05T10:10:12;0.00;;;0.00;;
15228;SDS011;7717;47.792;12.076;2022-07-05T10:12:39;0.00;;;0.00;;
15228;SDS011;7717;47.792;12.076;2022-07-05T10:15:05;0.00;;;0.00;;
15228;SDS011;7717;47.792;12.076;2022-07-05T10:17:33;0.00;;;0.00;;
15228;SDS011;7717;47.792;12.076;2022-07-05T10:20:00;3.78;;;2.08;;
15228;SDS011;7717;47.792;12.076;2022-07-05T10:22:26;1.70;;;1.60;;
15228;SDS011;7717;47.792;12.076;2022-07-05T10:24:52;2.53;;;1.88;;
15228;SDS011;7717;47.792;12.076;2022-07-05T10:27:18;1.70;;;1.60;;
15228;SDS011;7717;47.792;12.076;2022-07-05T10:29:44;1.80;;;1.70;;
15228;SDS011;7717;47.792;12.076;2022-07-05T10:32:10;1.83;;;1.73;;
15228;SDS011;7717;47.792;12.076;2022-07-05T10:34:36;5.70;;;1.95;;
15228;SDS011;7717;47.792;12.076;2022-07-05T10:37:02;1.80;;;1.65;;
15228;SDS011;7717;47.792;12.076;2022-07-05T10:39:31;1.70;;;1.60;;
15228;SDS011;7717;47.792;12.076;2022-07-05T10:41:56;2.10;;;2.00;;
15228;SDS011;7717;47.792;12.076;2022-07-05T10:44:32;2.78;;;1.70;;
15228;SDS011;7717;47.792;12.076;2022-07-05T10:47:08;2.50;;;2.00;;
15228;SDS011;7717;47.792;12.076;2022-07-05T10:49:37;1.90;;;1.63;;
15228;SDS011;7717;47.792;12.076;2022-07-05T10:52:03;2.00;;;1.90;;
15228;SDS011;7717;47.792;12.076;2022-07-05T10:54:29;2.30;;;1.98;;
15228;SDS011;7717;47.792;12.076;2022-07-05T11:02:22;3.50;;;1.88;;
15228;SDS011;7717;47.792;12.076;2022-07-05T11:04:47;1.85;;;1.73;;
15228;SDS011;7717;47.792;12.076;2022-07-05T11:07:32;2.60;;;2.20;;
15228;SDS011;7717;47.792;12.076;2022-07-05T11:10:04;3.13;;;2.00;;
15228;SDS011;7717;47.792;12.076;2022-07-05T11:12:35;2.00;;;1.90;;
15228;SDS011;7717;47.792;12.076;2022-07-05T11:15:05;1.80;;;1.70;;
15228;SDS011;7717;47.792;12.076;2022-07-05T11:17:35;2.17;;;1.98;;
15228;SDS011;7717;47.792;12.076;2022-07-05T11:22:27;2.20;;;2.00;;
15228;SDS011;7717;47.792;12.076;2022-07-05T11:24:52;3.92;;;2.00;;
15228;SDS011;7717;47.792;12.076;2022-07-05T11:27:18;1.80;;;1.70;;
15228;SDS011;7717;47.792;12.076;2022-07-05T11:32:09;2.63;;;1.80;;
15228;SDS011;7717;47.792;12.076;2022-07-05T11:34:35;1.80;;;1.70;;
15228;SDS011;7717;47.792;12.076;2022-07-05T11:39:41;1.83;;;1.73;;
15228;SDS011;7717;47.792;12.076;2022-07-05T11:42:10;1.88;;;1.67;;
15228;SDS011;7717;47.792;12.076;2022-07-05T11:44:36;2.97;;;1.50;;
15228;SDS011;7717;47.792;12.076;2022-07-05T11:47:02;2.08;;;1.98;;
15228;SDS011;7717;47.792;12.076;2022-07-05T11:49:27;1.80;;;1.70;;
15228;SDS011;7717;47.792;12.076;2022-07-05T11:51:59;1.63;;;1.52;;
15228;SDS011;7717;47.792;12.076;2022-07-05T11:54:26;2.03;;;1.80;;
15228;SDS011;7717;47.792;12.076;2022-07-05T11:56:51;1.50;;;1.40;;
15228;SDS011;7717;47.792;12.076;2022-07-05T11:59:20;1.80;;;1.70;;
15228;SDS011;7717;47.792;12.076;2022-07-05T12:01:46;1.70;;;1.60;;
15228;SDS011;7717;47.792;12.076;2022-07-05T12:04:11;1.83;;;1.73;;
15228;SDS011;7717;47.792;12.076;2022-07-05T12:06:42;2.78;;;1.65;;
15228;SDS011;7717;47.792;12.076;2022-07-05T12:09:07;3.55;;;1.95;;
15228;SDS011;7717;47.792;12.076;2022-07-05T12:11:32;1.73;;;1.60;;
15228;SDS011;7717;47.792;12.076;2022-07-05T12:14:22;1.95;;;1.40;;
15228;SDS011;7717;47.792;12.076;2022-07-05T12:17:13;1.65;;;1.55;;
15228;SDS011;7717;47.792;12.076;2022-07-05T12:19:39;3.53;;;1.73;;
15228;SDS011;7717;47.792;12.076;2022-07-05T12:22:04;1.60;;;1.50;;
15228;SDS011;7717;47.792;12.076;2022-07-05T12:24:29;3.78;;;1.90;;
15228;SDS011;7717;47.792;12.076;2022-07-05T12:26:54;1.83;;;1.60;;
15228;SDS011;7717;47.792;12.076;2022-07-05T12:29:20;2.92;;;1.70;;
15228;SDS011;7717;47.792;12.076;2022-07-05T12:32:04;1.98;;;1.60;;
15228;SDS011;7717;47.792;12.076;2022-07-05T12:34:33;1.63;;;1.40;;
15228;SDS011;7717;47.792;12.076;2022-07-05T12:36:58;1.80;;;1.50;;
15228;SDS011;7717;47.792;12.076;2022-07-05T12:39:24;3.42;;;1.38;;
15228;SDS011;7717;47.792;12.076;2022-07-05T12:41:49;1.70;;;1.60;;
15228;SDS011;7717;47.792;12.076;2022-07-05T12:44:18;1.55;;;1.45;;
15228;SDS011;7717;47.792;12.076;2022-07-05T12:46:44;1.63;;;1.52;;
15228;SDS011;7717;47.792;12.076;2022-07-05T12:49:10;2.65;;;1.52;;
15228;SDS011;7717;47.792;12.076;2022-07-05T12:54:39;1.63;;;1.52;;
15228;SDS011;7717;47.792;12.076;2022-07-05T12:57:23;1.77;;;1.48;;
15228;SDS011;7717;47.792;12.076;2022-07-05T13:00:07;1.80;;;1.70;;
15228;SDS011;7717;47.792;12.076;2022-07-05T13:02:42;1.88;;;1.73;;
15228;SDS011;7717;47.792;12.076;2022-07-05T13:05:10;2.30;;;2.10;;
15228;SDS011;7717;47.792;12.076;2022-07-05T13:07:43;1.50;;;1.40;;
15228;SDS011;7717;47.792;12.076;2022-07-05T13:10:19;1.58;;;1.30;;
15228;SDS011;7717;47.792;12.076;2022-07-05T13:12:44;3.28;;;1.48;;
15228;SDS011;7717;47.792;12.076;2022-07-05T13:15:13;1.40;;;1.30;;
15228;SDS011;7717;47.792;12.076;2022-07-05T13:17:39;1.80;;;1.70;;
15228;SDS011;7717;47.792;12.076;2022-07-05T13:20:05;4.03;;;1.77;;
15228;SDS011;7717;47.792;12.076;2022-07-05T13:22:30;1.88;;;1.77;;
15228;SDS011;7717;47.792;12.076;2022-07-05T13:24:55;3.65;;;1.60;;
15228;SDS011;7717;47.792;12.076;2022-07-05T13:27:21;2.72;;;1.90;;
15228;SDS011;7717;47.792;12.076;2022-07-05T13:29:46;2.80;;;1.50;;
15228;SDS011;7717;47.792;12.076;2022-07-05T13:32:13;1.58;;;1.48;;
15228;SDS011;7717;47.792;12.076;2022-07-05T13:34:41;3.80;;;1.48;;
15228;SDS011;7717;47.792;12.076;2022-07-05T13:37:06;2.35;;;1.73;;
15228;SDS011;7717;47.792;12.076;2022-07-05T13:39:31;2.65;;;1.73;;
15228;SDS011;7717;47.792;12.076;2022-07-05T13:41:56;2.05;;;1.70;;
15228;SDS011;7717;47.792;12.076;2022-07-05T13:44:22;3.90;;;1.80;;
15228;SDS011;7717;47.792;12.076;2022-07-05T13:46:47;2.10;;;2.00;;
15228;SDS011;7717;47.792;12.076;2022-07-05T13:49:13;4.93;;;1.70;;
15228;SDS011;7717;47.792;12.076;2022-07-05T13:51:38;1.42;;;1.30;;
15228;SDS011;7717;47.792;12.076;2022-07-05T13:54:03;1.60;;;1.50;;
15228;SDS011;7717;47.792;12.076;2022-07-05T13:56:29;2.00;;;1.83;;
15228;SDS011;7717;47.792;12.076;2022-07-05T13:58:56;2.75;;;1.50;;
15228;SDS011;7717;47.792;12.076;2022-07-05T14:01:22;1.83;;;1.70;;
15228;SDS011;7717;47.792;12.076;2022-07-05T14:03:52;2.17;;;1.75;;
15228;SDS011;7717;47.792;12.076;2022-07-05T14:06:17;1.67;;;1.58;;
15228;SDS011;7717;47.792;12.076;2022-07-05T14:08:43;1.45;;;1.35;;
15228;SDS011;7717;47.792;12.076;2022-07-05T14:11:09;1.80;;;1.70;;
15228;SDS011;7717;47.792;12.076;2022-07-05T14:13:35;1.60;;;1.50;;
15228;SDS011;7717;47.792;12.076;2022-07-05T14:16:00;2.65;;;1.60;;
15228;SDS011;7717;47.792;12.076;2022-07-05T14:21:01;1.65;;;1.55;;
15228;SDS011;7717;47.792;12.076;2022-07-05T14:23:38;1.88;;;1.60;;
15228;SDS011;7717;47.792;12.076;2022-07-05T14:26:07;2.50;;;1.70;;
15228;SDS011;7717;47.792;12.076;2022-07-05T14:28:51;1.40;;;1.30;;
15228;SDS011;7717;47.792;12.076;2022-07-05T14:31:22;1.77;;;1.40;;
15228;SDS011;7717;47.792;12.076;2022-07-05T14:34:01;1.63;;;1.52;;
15228;SDS011;7717;47.792;12.076;2022-07-05T14:36:32;1.92;;;1.63;;
15228;SDS011;7717;47.792;12.076;2022-07-05T14:39:00;2.65;;;1.67;;
15228;SDS011;7717;47.792;12.076;2022-07-05T14:41:33;1.70;;;1.60;;
15228;SDS011;7717;47.792;12.076;2022-07-05T14:44:11;2.10;;;1.77;;
15228;SDS011;7717;47.792;12.076;2022-07-05T14:46:40;1.83;;;1.42;;
15228;SDS011;7717;47.792;12.076;2022-07-05T14:49:29;2.80;;;1.40;;
15228;SDS011;7717;47.792;12.076;2022-07-05T14:51:57;1.90;;;1.40;;
15228;SDS011;7717;47.792;12.076;2022-07-05T14:54:22;3.40;;;2.17;;
15228;SDS011;7717;47.792;12.076;2022-07-05T14:56:48;1.60;;;1.50;;
15228;SDS011;7717;47.792;12.076;2022-07-05T14:59:15;2.00;;;1.45;;
15228;SDS011;7717;47.792;12.076;2022-07-05T15:01:40;1.20;;;1.20;;
15228;SDS011;7717;47.792;12.076;2022-07-05T15:04:05;2.67;;;1.80;;
15228;SDS011;7717;47.792;12.076;2022-07-05T15:06:31;1.58;;;1.58;;
15228;SDS011;7717;47.792;12.076;2022-07-05T15:08:56;3.78;;;1.50;;